Terminal Aerodrome Forecast
Issued by NWS

Home | Current Version | Previous Version | Text Only | Print | Product List | Glossary On
Versions: 1 2 3 4 5 6 7 8 9 10 11 12 13 14 15 16 17 18 19 20
000
FTUS45 KFGZ 301100
TAFPGA
TAF
KPGA 301128Z 3012/0112 VRB03KT P6SM SCT100
     FM301300 30005KT P6SM FEW100 SCT250
     FM301900 32007KT P6SM FEW200=

USA.gov is the U.S. government's official web portal to all federal, state and local government web resources and services.